createdAt,value
2017-06-27T00:00:45.496Z,13.60
2017-06-27T00:03:13.900Z,13.60
2017-06-27T00:05:41.532Z,13.60
2017-06-27T00:08:09.221Z,13.50
2017-06-27T00:10:37.055Z,13.60
2017-06-27T00:13:05.116Z,13.50
2017-06-27T00:15:32.772Z,13.50
2017-06-27T00:18:00.407Z,13.50
2017-06-27T00:20:28.078Z,13.50
2017-06-27T00:22:55.751Z,13.50
2017-06-27T00:25:23.662Z,13.50
2017-06-27T00:27:51.318Z,13.50
2017-06-27T00:30:18.951Z,13.40
2017-06-27T00:32:46.729Z,13.40
2017-06-27T00:35:14.368Z,13.30
2017-06-27T00:37:42.307Z,13.40
2017-06-27T00:40:09.946Z,13.30
2017-06-27T00:42:37.560Z,13.30
2017-06-27T00:45:05.227Z,13.30
2017-06-27T00:47:32.864Z,13.30
2017-06-27T00:50:00.775Z,13.20
2017-06-27T00:52:28.395Z,13.20
2017-06-27T00:54:56.166Z,13.20
2017-06-27T00:57:23.831Z,13.20
2017-06-27T00:59:51.481Z,13.20
2017-06-27T01:02:20.167Z,13.20
2017-06-27T01:04:47.805Z,13.20
2017-06-27T01:07:15.642Z,13.20
2017-06-27T01:09:44.063Z,13.10
2017-06-27T01:12:11.709Z,13.10
2017-06-27T01:14:39.664Z,13.10
2017-06-27T01:17:07.279Z,13.00
2017-06-27T01:19:34.923Z,13.00
2017-06-27T01:22:02.604Z,13.00
2017-06-27T01:24:30.241Z,13.00
2017-06-27T01:26:58.311Z,13.00
2017-06-27T01:29:26.168Z,13.00
2017-06-27T01:31:53.856Z,13.10
2017-06-27T01:34:22.291Z,13.20
2017-06-27T01:36:49.933Z,13.10
2017-06-27T01:39:17.870Z,13.20
2017-06-27T01:41:45.651Z,13.20
2017-06-27T01:44:14.054Z,13.20
2017-06-27T01:46:41.714Z,13.20
2017-06-27T01:49:09.345Z,13.30
2017-06-27T01:51:37.425Z,13.30
2017-06-27T01:54:05.062Z,13.30
2017-06-27T01:56:32.798Z,13.30
2017-06-27T01:59:00.448Z,13.40
2017-06-27T02:01:28.074Z,13.40
2017-06-27T02:03:56.100Z,13.40
2017-06-27T02:06:23.759Z,13.50
2017-06-27T02:08:52.162Z,13.50
2017-06-27T02:11:19.829Z,13.40
2017-06-27T02:13:47.457Z,13.50
2017-06-27T02:16:15.588Z,13.50
2017-06-27T02:18:43.221Z,13.50
2017-06-27T02:21:11.642Z,13.50
2017-06-27T02:23:39.303Z,13.50
2017-06-27T02:26:07.048Z,13.60
2017-06-27T02:28:35.030Z,13.60
2017-06-27T02:31:02.757Z,13.60
2017-06-27T02:33:30.392Z,13.60
2017-06-27T02:35:58.085Z,13.60
2017-06-27T02:38:26.575Z,13.70
2017-06-27T02:40:54.650Z,13.60
2017-06-27T02:43:22.287Z,13.70
2017-06-27T02:45:49.936Z,13.70
2017-06-27T02:48:17.618Z,13.70
2017-06-27T02:50:45.251Z,13.70
2017-06-27T02:53:13.225Z,13.60
2017-06-27T02:55:40.879Z,13.60
2017-06-27T02:58:08.525Z,13.70
2017-06-27T03:00:36.203Z,13.80
2017-06-27T03:03:03.841Z,13.80
2017-06-27T03:05:32.545Z,13.90
2017-06-27T03:08:00.191Z,13.80
2017-06-27T03:10:36.017Z,14.00
2017-06-27T03:13:03.656Z,14.00
2017-06-27T03:15:31.299Z,14.10
2017-06-27T03:17:58.970Z,14.10
2017-06-27T03:20:26.686Z,14.10
2017-06-27T03:22:54.685Z,14.20
2017-06-27T03:25:22.318Z,14.20
2017-06-27T03:27:49.975Z,14.30
2017-06-27T03:30:17.639Z,14.30
2017-06-27T03:32:45.283Z,14.40
2017-06-27T03:35:13.432Z,14.40
2017-06-27T03:37:41.090Z,14.40
2017-06-27T03:40:08.740Z,14.50
2017-06-27T03:42:36.398Z,14.60
2017-06-27T03:45:04.035Z,14.60
2017-06-27T03:47:31.961Z,14.60
2017-06-27T03:49:59.612Z,14.70
2017-06-27T03:52:27.265Z,14.80
2017-06-27T03:54:54.932Z,14.80
2017-06-27T03:57:22.650Z,14.90
2017-06-27T03:59:50.604Z,14.90
2017-06-27T04:02:19.246Z,14.90
2017-06-27T04:04:46.967Z,15.00
2017-06-27T04:07:14.626Z,15.00
2017-06-27T04:09:43.036Z,15.20
2017-06-27T04:12:10.975Z,15.10
2017-06-27T04:14:38.614Z,15.30
2017-06-27T04:17:06.409Z,15.40
2017-06-27T04:19:34.067Z,15.30
2017-06-27T04:22:01.703Z,15.50
2017-06-27T04:24:29.737Z,15.50
2017-06-27T04:26:57.398Z,15.50
2017-06-27T04:29:25.217Z,15.50
2017-06-27T04:31:52.886Z,15.50
2017-06-27T04:34:20.543Z,15.60
2017-06-27T04:36:48.470Z,15.60
2017-06-27T04:39:16.288Z,15.70
2017-06-27T04:41:44.687Z,15.90
2017-06-27T04:44:12.854Z,15.90
2017-06-27T04:46:40.493Z,16.00
2017-06-27T04:49:08.542Z,16.20
2017-06-27T04:51:36.175Z,16.20
2017-06-27T04:54:03.810Z,16.30
2017-06-27T04:56:31.472Z,16.30
2017-06-27T04:58:59.111Z,16.40
2017-06-27T05:01:27.091Z,16.50
2017-06-27T05:03:54.736Z,16.50
2017-06-27T05:06:22.377Z,16.50
2017-06-27T05:08:50.056Z,16.50
2017-06-27T05:11:17.685Z,16.70
2017-06-27T05:13:45.702Z,16.80
2017-06-27T05:16:13.436Z,17.10
2017-06-27T05:18:41.968Z,17.20
2017-06-27T05:21:09.667Z,17.10
2017-06-27T05:23:37.325Z,17.20
2017-06-27T05:26:05.311Z,17.20
2017-06-27T05:28:32.958Z,17.30
2017-06-27T05:31:00.618Z,17.50
2017-06-27T05:33:29.444Z,17.60
2017-06-27T05:35:57.230Z,17.70
2017-06-27T05:38:25.213Z,17.80
2017-06-27T05:40:53.622Z,18.00
2017-06-27T05:43:22.032Z,18.20
2017-06-27T05:45:49.699Z,18.10
2017-06-27T05:48:23.965Z,18.40
2017-06-27T05:50:51.912Z,18.30
2017-06-27T05:53:19.554Z,18.40
2017-06-27T05:55:47.201Z,18.60
2017-06-27T05:58:14.885Z,18.80
2017-06-27T06:00:42.577Z,18.70
2017-06-27T06:03:11.272Z,19.60
2017-06-27T06:05:38.946Z,19.50
2017-06-27T06:08:06.728Z,19.90
2017-06-27T06:10:35.160Z,20.30
2017-06-27T06:13:02.773Z,20.20
2017-06-27T06:15:30.734Z,20.30
2017-06-27T06:17:58.352Z,20.50
2017-06-27T06:20:26.136Z,20.90
2017-06-27T06:22:53.780Z,21.50
2017-06-27T06:25:21.383Z,22.00
2017-06-27T06:27:50.086Z,22.40
2017-06-27T06:30:17.703Z,22.30
2017-06-27T06:32:46.268Z,23.40
2017-06-27T06:35:14.763Z,23.20
2017-06-27T06:37:46.088Z,23.10
2017-06-27T06:40:14.043Z,22.90
2017-06-27T06:42:41.648Z,23.30
2017-06-27T06:45:09.255Z,23.80
2017-06-27T06:47:36.892Z,23.90
2017-06-27T06:50:04.490Z,23.70
2017-06-27T06:52:32.449Z,23.80
2017-06-27T06:55:00.198Z,24.30
2017-06-27T06:57:28.590Z,25.20
2017-06-27T06:59:58.626Z,25.90
2017-06-27T07:02:26.240Z,25.70
2017-06-27T07:04:54.203Z,25.80
2017-06-27T07:07:21.828Z,25.20
2017-06-27T07:09:50.219Z,26.20
2017-06-27T07:12:17.903Z,26.20
2017-06-27T07:14:45.706Z,26.30
2017-06-27T07:17:13.641Z,26.70
2017-06-27T07:19:41.243Z,26.40
2017-06-27T07:22:08.860Z,26.30
2017-06-27T07:24:36.575Z,25.60
2017-06-27T07:27:05.030Z,26.30
2017-06-27T07:29:33.116Z,26.20
2017-06-27T07:32:00.724Z,26.30
2017-06-27T07:34:28.385Z,25.50
2017-06-27T07:36:56.157Z,25.50
2017-06-27T07:39:23.767Z,25.90
2017-06-27T07:41:51.776Z,26.30
2017-06-27T07:44:19.389Z,26.20
2017-06-27T07:46:47.309Z,25.70
2017-06-27T07:49:15.033Z,24.60
2017-06-27T07:51:42.788Z,24.00
2017-06-27T07:54:10.880Z,23.80
2017-06-27T07:56:39.336Z,23.50
2017-06-27T07:59:07.733Z,23.90
2017-06-27T08:01:35.394Z,23.90
2017-06-27T08:04:03.004Z,24.00
2017-06-27T08:06:31.091Z,24.00
2017-06-27T08:08:58.709Z,23.90
2017-06-27T08:11:26.313Z,24.10
2017-06-27T08:13:53.951Z,24.40
2017-06-27T08:16:21.586Z,24.30
2017-06-27T08:18:49.630Z,25.30
2017-06-27T08:21:17.244Z,26.20
2017-06-27T08:23:44.877Z,26.50
2017-06-27T08:26:13.417Z,27.50
2017-06-27T08:28:41.028Z,27.40
2017-06-27T08:31:09.810Z,27.40
2017-06-27T08:33:37.410Z,27.40
2017-06-27T08:36:05.217Z,27.40
2017-06-27T08:38:32.860Z,27.70
2017-06-27T08:41:00.477Z,28.30
2017-06-27T08:43:29.163Z,28.20
2017-06-27T08:45:57.525Z,28.30
2017-06-27T08:48:26.119Z,28.30
2017-06-27T08:50:53.748Z,28.20
2017-06-27T08:53:21.375Z,28.50
2017-06-27T08:55:50.070Z,28.20
2017-06-27T08:58:17.670Z,28.10
2017-06-27T09:00:45.274Z,27.90
2017-06-27T09:03:12.911Z,28.30
2017-06-27T09:05:40.514Z,27.30
2017-06-27T09:08:08.428Z,27.20
2017-06-27T09:10:36.129Z,26.90
2017-06-27T09:13:03.756Z,26.00
2017-06-27T09:15:31.394Z,25.50
2017-06-27T09:17:59.011Z,25.90
2017-06-27T09:20:27.056Z,26.00
2017-06-27T09:22:54.681Z,26.00
2017-06-27T09:25:22.296Z,26.10
2017-06-27T09:27:49.934Z,25.70
2017-06-27T09:30:17.569Z,25.30
2017-06-27T09:32:45.802Z,26.00
2017-06-27T09:35:13.408Z,26.30
2017-06-27T09:37:41.103Z,26.20
2017-06-27T09:40:08.741Z,25.80
2017-06-27T09:42:36.341Z,25.20
2017-06-27T09:45:03.975Z,25.30
2017-06-27T09:47:31.622Z,25.10
2017-06-27T09:49:59.282Z,24.80
2017-06-27T09:52:27.364Z,24.40
2017-06-27T09:54:55.354Z,24.20
2017-06-27T09:57:23.030Z,24.10
2017-06-27T09:59:50.682Z,24.30
2017-06-27T10:02:18.431Z,24.10
2017-06-27T10:04:46.973Z,24.00
2017-06-27T10:07:14.708Z,24.10
2017-06-27T10:09:42.374Z,24.30
2017-06-27T10:12:10.283Z,24.40
2017-06-27T10:14:37.974Z,24.30
2017-06-27T10:17:05.660Z,24.30
2017-06-27T10:19:34.116Z,24.40
2017-06-27T10:22:02.482Z,24.40
2017-06-27T10:24:30.244Z,24.30
2017-06-27T10:26:58.648Z,24.50
2017-06-27T10:29:26.581Z,24.50
2017-06-27T10:31:54.185Z,24.60
2017-06-27T10:34:21.813Z,24.50
2017-06-27T10:36:49.458Z,24.70
2017-06-27T10:39:17.130Z,24.70
2017-06-27T10:41:44.857Z,24.60
2017-06-27T10:44:13.251Z,24.10
2017-06-27T10:46:41.223Z,24.10
2017-06-27T10:49:08.887Z,23.80
2017-06-27T10:51:36.631Z,23.80
2017-06-27T10:54:04.285Z,23.90
2017-06-27T10:56:31.919Z,24.00
2017-06-27T10:58:59.629Z,23.80
2017-06-27T11:01:27.256Z,23.70
2017-06-27T11:03:55.234Z,23.80
2017-06-27T11:06:23.658Z,23.30
2017-06-27T11:08:51.284Z,23.30
2017-06-27T11:11:18.932Z,23.30
2017-06-27T11:13:46.686Z,23.40
2017-06-27T11:16:14.339Z,23.40
2017-06-27T11:18:41.955Z,23.40
2017-06-27T11:21:09.588Z,23.50
2017-06-27T11:23:37.301Z,23.50
2017-06-27T11:26:04.923Z,23.30
2017-06-27T11:28:32.807Z,23.20
2017-06-27T11:31:00.427Z,23.20
2017-06-27T11:33:28.373Z,23.30
2017-06-27T11:35:56.116Z,23.40
2017-06-27T11:38:23.730Z,23.20
2017-06-27T11:40:51.424Z,23.30
2017-06-27T11:43:19.116Z,23.30
2017-06-27T11:45:47.625Z,23.60
2017-06-27T11:48:15.248Z,23.50
2017-06-27T11:50:43.251Z,23.90
2017-06-27T11:53:10.965Z,23.90
2017-06-27T11:55:38.657Z,24.10
2017-06-27T11:58:06.323Z,24.00
2017-06-27T12:00:46.615Z,23.60
2017-06-27T12:03:26.778Z,23.40
2017-06-27T12:06:06.380Z,23.40
2017-06-27T12:08:34.022Z,23.40
2017-06-27T12:11:01.635Z,23.20
2017-06-27T12:13:30.359Z,23.30
2017-06-27T12:15:57.995Z,23.20
2017-06-27T12:18:25.751Z,23.20
2017-06-27T12:20:53.395Z,23.00
2017-06-27T12:23:21.006Z,22.90
2017-06-27T12:25:48.643Z,22.90
2017-06-27T12:28:17.067Z,22.90
2017-06-27T12:30:45.067Z,22.80
2017-06-27T12:33:12.771Z,22.90
2017-06-27T12:35:40.393Z,22.90
2017-06-27T12:38:08.033Z,22.90
2017-06-27T12:40:35.715Z,22.80
2017-06-27T12:43:03.358Z,22.80
2017-06-27T12:45:30.960Z,22.70
2017-06-27T12:47:58.921Z,22.70
2017-06-27T12:50:26.615Z,22.60
2017-06-27T12:52:54.299Z,22.50
2017-06-27T12:55:21.947Z,22.30
2017-06-27T12:57:49.562Z,22.00
2017-06-27T13:00:17.207Z,21.50
2017-06-27T13:02:44.824Z,21.30
2017-06-27T13:05:12.741Z,21.10
2017-06-27T13:07:40.370Z,21.00
2017-06-27T13:10:08.005Z,20.90
2017-06-27T13:12:35.706Z,20.80
2017-06-27T13:15:03.350Z,20.80
2017-06-27T13:17:31.050Z,20.80
2017-06-27T13:19:58.654Z,20.80
2017-06-27T13:22:27.208Z,21.00
2017-06-27T13:24:54.930Z,21.00
2017-06-27T13:27:22.970Z,21.10
2017-06-27T13:29:50.659Z,21.10
2017-06-27T13:32:18.307Z,21.20
2017-06-27T13:34:46.265Z,21.20
2017-06-27T13:37:13.897Z,21.20
2017-06-27T13:39:41.509Z,21.10
2017-06-27T13:42:10.202Z,21.10
2017-06-27T13:44:37.903Z,21.10
2017-06-27T13:47:06.335Z,21.10
2017-06-27T13:49:35.178Z,21.00
2017-06-27T13:52:03.962Z,21.20
2017-06-27T13:54:31.658Z,21.20
2017-06-27T13:56:59.280Z,21.20
2017-06-27T13:59:27.072Z,21.30
2017-06-27T14:01:55.829Z,21.40
2017-06-27T14:04:23.487Z,21.30
2017-06-27T14:06:51.099Z,21.40
2017-06-27T14:09:19.031Z,21.50
2017-06-27T14:11:46.731Z,21.50
2017-06-27T14:14:14.339Z,21.60
2017-06-27T14:16:42.082Z,21.60
2017-06-27T14:19:09.727Z,21.60
2017-06-27T14:21:37.380Z,21.50
2017-06-27T14:24:05.195Z,21.60
2017-06-27T14:26:33.871Z,21.60
2017-06-27T14:29:01.484Z,21.50
2017-06-27T14:31:29.080Z,21.50
2017-06-27T14:33:56.771Z,21.50
2017-06-27T14:36:24.388Z,21.60
2017-06-27T14:38:52.033Z,21.60
2017-06-27T14:41:19.663Z,21.80
2017-06-27T14:43:47.649Z,21.70
2017-06-27T14:46:15.251Z,21.80
2017-06-27T14:48:42.880Z,22.00
2017-06-27T14:51:11.993Z,22.10
2017-06-27T14:53:39.614Z,22.10
2017-06-27T14:56:07.272Z,22.10
2017-06-27T14:58:34.885Z,22.10
2017-06-27T15:01:02.930Z,22.30
2017-06-27T15:03:30.556Z,22.20
2017-06-27T15:05:58.172Z,22.30
2017-06-27T15:08:26.017Z,22.30
2017-06-27T15:10:53.636Z,22.30
2017-06-27T15:13:22.067Z,22.40
2017-06-27T15:15:49.893Z,22.40
2017-06-27T15:18:17.968Z,22.60
2017-06-27T15:20:45.692Z,22.70
2017-06-27T15:23:13.292Z,22.70
2017-06-27T15:25:40.934Z,22.80
2017-06-27T15:28:08.585Z,23.00
2017-06-27T15:30:36.241Z,23.00
2017-06-27T15:33:03.862Z,23.00
2017-06-27T15:35:31.742Z,22.90
2017-06-27T15:37:59.369Z,22.90
2017-06-27T15:40:27.183Z,22.80
2017-06-27T15:42:54.828Z,23.00
2017-06-27T15:45:22.449Z,23.00
2017-06-27T15:47:51.992Z,22.90
2017-06-27T15:50:19.616Z,22.90
2017-06-27T15:52:47.557Z,22.90
2017-06-27T15:55:15.230Z,22.90
2017-06-27T15:57:42.841Z,23.10
2017-06-27T16:00:10.474Z,22.80
2017-06-27T16:02:38.875Z,22.70
2017-06-27T16:05:06.624Z,22.70
2017-06-27T16:07:34.234Z,22.60
2017-06-27T16:10:02.893Z,22.60
2017-06-27T16:12:30.549Z,22.60
2017-06-27T16:14:58.935Z,22.50
2017-06-27T16:17:26.600Z,22.50
2017-06-27T16:19:54.214Z,22.60
2017-06-27T16:22:21.947Z,22.60
2017-06-27T16:24:50.313Z,22.50
2017-06-27T16:27:18.749Z,22.40
2017-06-27T16:29:46.634Z,22.40
2017-06-27T16:32:15.004Z,22.30
2017-06-27T16:34:42.642Z,22.20
2017-06-27T16:37:11.019Z,22.30
2017-06-27T16:39:38.993Z,22.30
2017-06-27T16:42:06.738Z,22.40
2017-06-27T16:44:34.353Z,22.40
2017-06-27T16:47:02.783Z,22.40
2017-06-27T16:49:30.391Z,22.40
2017-06-27T16:51:58.912Z,22.40
2017-06-27T16:54:26.576Z,22.40
2017-06-27T16:56:55.493Z,22.50
2017-06-27T16:59:23.102Z,22.40
2017-06-27T17:01:50.730Z,22.50
2017-06-27T17:04:18.368Z,22.40
2017-06-27T17:06:45.990Z,22.40
2017-06-27T17:09:13.644Z,22.40
2017-06-27T17:11:41.881Z,22.30
2017-06-27T17:14:09.831Z,22.30
2017-06-27T17:16:38.795Z,22.20
2017-06-27T17:19:06.532Z,22.20
2017-06-27T17:21:34.190Z,22.20
2017-06-27T17:24:01.825Z,22.10
2017-06-27T17:26:29.805Z,22.00
2017-06-27T17:28:57.424Z,22.00
2017-06-27T17:31:26.062Z,22.10
2017-06-27T17:33:54.505Z,22.10
2017-06-27T17:36:22.136Z,22.10
2017-06-27T17:38:50.630Z,22.10
2017-06-27T17:41:18.268Z,22.00
2017-06-27T17:43:45.936Z,22.00
2017-06-27T17:46:13.604Z,21.90
2017-06-27T17:48:41.981Z,21.90
2017-06-27T17:51:12.396Z,21.90
2017-06-27T17:53:40.105Z,21.80
2017-06-27T17:56:07.711Z,21.80
2017-06-27T17:58:35.585Z,21.70
2017-06-27T18:01:03.221Z,21.80
2017-06-27T18:03:31.264Z,21.70
2017-06-27T18:05:58.873Z,21.80
2017-06-27T18:08:27.257Z,21.80
2017-06-27T18:10:55.002Z,21.70
2017-06-27T18:13:22.709Z,21.80
2017-06-27T18:15:51.238Z,21.70
2017-06-27T18:18:18.860Z,21.70
2017-06-27T18:20:47.237Z,21.70
2017-06-27T18:23:15.020Z,21.60
2017-06-27T18:25:42.829Z,21.80
2017-06-27T18:28:10.820Z,21.60
2017-06-27T18:30:38.422Z,21.60
2017-06-27T18:33:06.041Z,21.50
2017-06-27T18:35:33.818Z,21.50
2017-06-27T18:38:02.193Z,21.40
2017-06-27T18:40:30.177Z,21.40
2017-06-27T18:42:57.805Z,21.30
2017-06-27T18:45:25.588Z,21.30
2017-06-27T18:47:53.265Z,21.20
2017-06-27T18:50:20.866Z,21.10
2017-06-27T18:52:48.781Z,21.10
2017-06-27T18:55:16.520Z,21.10
2017-06-27T18:57:45.025Z,20.90
2017-06-27T19:00:12.747Z,20.90
2017-06-27T19:02:40.360Z,20.90
2017-06-27T19:05:07.993Z,20.90
2017-06-27T19:07:35.763Z,20.90
2017-06-27T19:10:03.370Z,20.90
2017-06-27T19:12:31.303Z,20.80
2017-06-27T19:14:58.920Z,20.80
2017-06-27T19:17:26.755Z,20.70
2017-06-27T19:19:54.488Z,20.70
2017-06-27T19:22:22.124Z,20.50
2017-06-27T19:24:54.126Z,20.50
2017-06-27T19:27:21.955Z,20.40
2017-06-27T19:29:50.344Z,20.30
2017-06-27T19:32:18.180Z,20.20
2017-06-27T19:34:45.944Z,20.20
2017-06-27T19:37:13.842Z,20.20
2017-06-27T19:39:41.806Z,20.10
2017-06-27T19:42:09.710Z,20.10
2017-06-27T19:44:37.545Z,20.00
2017-06-27T19:47:05.224Z,20.00
2017-06-27T19:49:33.164Z,19.90
2017-06-27T19:52:00.819Z,19.90
2017-06-27T19:54:28.445Z,19.90
2017-06-27T19:56:56.309Z,19.80
2017-06-27T19:59:24.100Z,19.70
2017-06-27T20:01:52.117Z,19.60
2017-06-27T20:04:19.766Z,19.60
2017-06-27T20:06:47.405Z,19.40
2017-06-27T20:09:15.120Z,19.30
2017-06-27T20:11:42.817Z,19.30
2017-06-27T20:14:10.773Z,19.20
2017-06-27T20:16:38.435Z,19.10
2017-06-27T20:19:06.089Z,19.10
2017-06-27T20:21:33.971Z,19.00
2017-06-27T20:24:01.613Z,19.00
2017-06-27T20:26:29.826Z,19.00
2017-06-27T20:28:57.574Z,18.90
2017-06-27T20:31:25.448Z,18.80
2017-06-27T20:33:53.146Z,18.80
2017-06-27T20:36:20.798Z,18.80
2017-06-27T20:38:48.855Z,18.70
2017-06-27T20:41:16.521Z,18.70
2017-06-27T20:43:44.157Z,18.60
2017-06-27T20:46:11.827Z,18.60
2017-06-27T20:48:39.553Z,18.60
2017-06-27T20:51:07.592Z,18.60
2017-06-27T20:53:35.492Z,18.70
2017-06-27T20:56:03.196Z,18.70
2017-06-27T20:58:30.885Z,18.70
2017-06-27T21:00:58.596Z,18.70
2017-06-27T21:03:26.679Z,18.70
2017-06-27T21:05:54.312Z,18.70
2017-06-27T21:08:22.127Z,18.70
2017-06-27T21:10:49.833Z,18.70
2017-06-27T21:13:17.499Z,18.60
2017-06-27T21:15:46.045Z,18.60
2017-06-27T21:18:14.527Z,18.60
2017-06-27T21:20:42.945Z,18.60
2017-06-27T21:23:10.626Z,18.50
2017-06-27T21:25:38.295Z,18.70
2017-06-27T21:28:07.125Z,18.60
2017-06-27T21:33:09.095Z,18.50
2017-06-27T21:35:36.926Z,18.50
2017-06-27T21:38:04.569Z,18.50
2017-06-27T21:40:32.293Z,18.50
2017-06-27T21:43:00.065Z,18.50
2017-06-27T21:45:28.033Z,18.40
2017-06-27T21:47:55.804Z,18.30
2017-06-27T21:50:24.192Z,18.20
2017-06-27T21:52:51.851Z,18.20
2017-06-27T21:55:19.490Z,18.20
2017-06-27T21:57:47.417Z,18.10
2017-06-27T22:00:15.042Z,18.00
2017-06-27T22:02:42.675Z,18.00
2017-06-27T22:05:10.349Z,17.90
2017-06-27T22:07:37.978Z,17.80
2017-06-27T22:10:06.014Z,17.80
2017-06-27T22:12:33.661Z,17.70
2017-06-27T22:15:01.300Z,17.60
2017-06-27T22:17:28.951Z,17.60
2017-06-27T22:19:56.617Z,17.60
2017-06-27T22:22:24.556Z,17.60
2017-06-27T22:24:52.180Z,17.50
2017-06-27T22:27:19.800Z,17.50
2017-06-27T22:29:48.232Z,17.30
2017-06-27T22:32:15.867Z,17.20
2017-06-27T22:34:43.810Z,17.20
2017-06-27T22:37:11.445Z,17.20
2017-06-27T22:39:39.089Z,17.30
2017-06-27T22:42:06.914Z,17.30
2017-06-27T22:44:34.556Z,17.20
2017-06-27T22:47:02.760Z,17.20
2017-06-27T22:49:30.390Z,17.20
2017-06-27T22:51:58.031Z,17.10
2017-06-27T22:54:25.794Z,17.10
2017-06-27T22:56:53.423Z,17.10
2017-06-27T22:59:21.367Z,17.00
2017-06-27T23:01:48.991Z,17.00
2017-06-27T23:04:17.382Z,16.90
2017-06-27T23:06:45.055Z,16.80
2017-06-27T23:09:12.708Z,16.90
2017-06-27T23:11:40.662Z,16.80
2017-06-27T23:14:08.307Z,16.80
2017-06-27T23:16:35.951Z,16.70
2017-06-27T23:19:03.644Z,16.60
2017-06-27T23:21:32.067Z,16.50
2017-06-27T23:24:00.059Z,16.40
2017-06-27T23:26:27.700Z,16.40
2017-06-27T23:28:55.461Z,16.40
2017-06-27T23:31:23.901Z,16.40
2017-06-27T23:33:51.547Z,16.30
2017-06-27T23:36:19.588Z,16.30
2017-06-27T23:38:47.238Z,16.40
2017-06-27T23:41:14.917Z,16.30
2017-06-27T23:43:43.368Z,16.30
2017-06-27T23:46:11.016Z,16.30
2017-06-27T23:48:39.037Z,16.20
2017-06-27T23:51:06.712Z,16.20
2017-06-27T23:53:34.365Z,16.30
2017-06-27T23:56:02.063Z,16.20
2017-06-27T23:58:29.703Z,16.20
